createdAt,value
2023-02-12T00:01:38.573Z,5.89
2023-02-12T00:04:05.156Z,5.89
2023-02-12T00:06:31.971Z,5.84
2023-02-12T00:08:59.346Z,5.86
2023-02-12T00:11:28.236Z,5.73
2023-02-12T00:21:33.504Z,5.52
2023-02-12T00:24:00.135Z,5.57
2023-02-12T00:26:26.763Z,5.65
2023-02-12T00:31:33.246Z,5.56
2023-02-12T00:34:00.552Z,5.47
2023-02-12T00:36:29.589Z,5.39
2023-02-12T00:38:57.236Z,5.36
2023-02-12T00:41:24.357Z,5.36
2023-02-12T00:43:51.580Z,5.36
2023-02-12T00:46:18.887Z,5.34
2023-02-12T00:48:45.593Z,5.32
2023-02-12T00:51:12.273Z,5.26
2023-02-12T00:53:38.964Z,5.29
2023-02-12T00:56:06.084Z,5.33
2023-02-12T00:58:32.902Z,5.34
2023-02-12T01:03:32.900Z,5.28
2023-02-12T01:05:59.448Z,5.34
2023-02-12T01:08:26.242Z,5.24
2023-02-12T01:10:58.339Z,5.30
2023-02-12T01:13:26.077Z,5.23
2023-02-12T01:18:44.865Z,5.43
2023-02-12T01:21:15.170Z,5.37
2023-02-12T01:23:42.949Z,5.40
2023-02-12T01:26:11.749Z,5.50
2023-02-12T01:28:42.833Z,5.40
2023-02-12T01:31:15.066Z,5.36
2023-02-12T01:33:43.528Z,5.32
2023-02-12T01:36:11.371Z,5.48
2023-02-12T01:38:37.924Z,5.48
2023-02-12T01:41:11.610Z,5.45
2023-02-12T01:43:38.807Z,5.46
2023-02-12T01:46:06.749Z,5.67
2023-02-12T01:48:39.097Z,5.64
2023-02-12T01:51:09.572Z,5.83
2023-02-12T01:53:41.227Z,5.89
2023-02-12T01:56:09.688Z,5.76
2023-02-12T01:58:40.025Z,5.63
2023-02-12T02:01:09.870Z,5.60
2023-02-12T02:06:20.032Z,5.50
2023-02-12T02:08:47.075Z,5.41
2023-02-12T02:11:32.059Z,5.41
2023-02-12T02:14:17.299Z,5.46
2023-02-12T02:16:51.967Z,5.37
2023-02-12T02:20:09.579Z,5.44
2023-02-12T02:22:50.123Z,5.56
2023-02-12T02:25:42.369Z,5.69
2023-02-12T02:28:32.904Z,5.71
2023-02-12T02:31:02.249Z,5.76
2023-02-12T02:33:51.431Z,5.78
2023-02-12T02:37:00.210Z,5.68
2023-02-12T02:39:41.085Z,5.73
2023-02-12T02:42:37.191Z,5.74
2023-02-12T02:45:13.582Z,5.82
2023-02-12T02:47:45.843Z,5.75
2023-02-12T02:50:16.875Z,5.67
2023-02-12T02:55:36.060Z,5.61
2023-02-12T02:58:25.450Z,5.76
2023-02-12T03:03:38.385Z,5.67
2023-02-12T03:06:13.696Z,5.65
2023-02-12T03:08:47.066Z,5.66
2023-02-12T03:11:25.482Z,5.63
2023-02-12T03:14:13.724Z,5.48
2023-02-12T03:16:47.528Z,5.42
2023-02-12T03:19:31.545Z,5.46
2023-02-12T03:22:03.297Z,5.35
2023-02-12T03:24:46.614Z,5.33
2023-02-12T03:27:26.561Z,5.45
2023-02-12T03:29:53.254Z,5.45
2023-02-12T03:32:36.294Z,5.57
2023-02-12T03:38:16.607Z,5.52
2023-02-12T03:41:06.846Z,5.49
2023-02-12T03:43:56.078Z,5.49
2023-02-12T03:46:27.725Z,5.39
2023-02-12T03:49:16.401Z,5.54
2023-02-12T03:51:45.098Z,5.59
2023-02-12T03:54:15.884Z,5.56
2023-02-12T03:56:52.233Z,5.56
2023-02-12T03:59:20.216Z,5.42
2023-02-12T04:01:49.075Z,5.47
2023-02-12T04:04:16.506Z,5.50
2023-02-12T04:06:43.802Z,5.34
2023-02-12T04:09:12.854Z,5.42
2023-02-12T04:11:54.172Z,5.42
2023-02-12T04:14:25.156Z,5.31
2023-02-12T04:17:03.539Z,5.43
2023-02-12T04:20:04.375Z,5.38
2023-02-12T04:22:54.017Z,5.62
2023-02-12T04:25:42.433Z,5.58
2023-02-12T04:28:27.611Z,5.41
2023-02-12T04:31:06.491Z,5.46
2023-02-12T04:33:41.469Z,5.44
2023-02-12T04:36:20.997Z,5.43
2023-02-12T04:38:54.062Z,5.50
2023-02-12T04:41:20.879Z,5.49
2023-02-12T04:43:47.449Z,5.52
2023-02-12T04:46:14.132Z,5.41
2023-02-12T04:48:58.833Z,5.49
2023-02-12T04:51:25.580Z,5.50
2023-02-12T04:53:52.173Z,5.43
2023-02-12T04:56:18.792Z,5.53
2023-02-12T04:58:45.507Z,5.50
2023-02-12T05:03:49.645Z,5.57
2023-02-12T05:06:16.250Z,5.54
2023-02-12T05:08:42.836Z,5.68
2023-02-12T05:11:11.631Z,5.51
2023-02-12T05:13:38.844Z,5.65
2023-02-12T05:16:07.318Z,5.60
2023-02-12T05:18:34.865Z,5.68
2023-02-12T05:23:36.915Z,5.51
2023-02-12T05:26:06.715Z,5.49
2023-02-12T05:28:33.440Z,5.54
2023-02-12T05:31:02.102Z,5.51
2023-02-12T05:33:28.803Z,5.54
2023-02-12T05:35:55.971Z,5.48
2023-02-12T05:38:22.965Z,5.45
2023-02-12T05:40:49.526Z,5.43
2023-02-12T05:43:16.113Z,5.41
2023-02-12T05:45:45.130Z,5.48
2023-02-12T05:48:11.742Z,5.46
2023-02-12T05:50:38.366Z,5.30
2023-02-12T05:53:04.946Z,5.29
2023-02-12T05:55:31.581Z,5.39
2023-02-12T05:57:58.202Z,5.37
2023-02-12T06:00:25.079Z,5.34
2023-02-12T06:02:51.751Z,5.32
2023-02-12T06:05:18.468Z,5.24
2023-02-12T06:10:17.560Z,5.17
2023-02-12T06:12:44.127Z,5.28
2023-02-12T06:15:10.901Z,5.27
2023-02-12T06:17:37.544Z,5.24
2023-02-12T06:20:04.615Z,5.26
2023-02-12T06:22:31.242Z,5.25
2023-02-12T06:24:57.807Z,5.21
2023-02-12T06:27:24.356Z,5.27
2023-02-12T06:29:50.932Z,5.21
2023-02-12T06:32:17.816Z,5.21
2023-02-12T06:34:44.536Z,5.28
2023-02-12T06:37:12.096Z,5.18
2023-02-12T06:39:38.766Z,5.26
2023-02-12T06:42:05.463Z,5.34
2023-02-12T06:44:32.077Z,5.21
2023-02-12T06:46:59.297Z,5.21
2023-02-12T06:51:57.652Z,5.19
2023-02-12T06:54:24.385Z,5.21
2023-02-12T06:56:51.014Z,5.26
2023-02-12T06:59:17.872Z,5.35
2023-02-12T07:01:44.919Z,5.37
2023-02-12T07:04:11.755Z,5.34
2023-02-12T07:06:38.697Z,5.32
2023-02-12T07:09:05.874Z,5.35
2023-02-12T07:11:37.785Z,5.41
2023-02-12T07:14:05.271Z,5.49
2023-02-12T07:19:03.320Z,5.51
2023-02-12T07:21:30.000Z,5.64
2023-02-12T07:23:56.650Z,5.61
2023-02-12T07:26:23.533Z,5.60
2023-02-12T07:28:52.293Z,5.56
2023-02-12T07:31:22.035Z,5.54
2023-02-12T07:33:49.494Z,5.45
2023-02-12T07:36:20.585Z,5.63
2023-02-12T07:38:48.210Z,5.49
2023-02-12T07:41:20.677Z,5.59
2023-02-12T07:43:49.474Z,5.61
2023-02-12T07:46:19.143Z,5.56
2023-02-12T07:48:47.049Z,5.72
2023-02-12T07:51:16.197Z,5.64
2023-02-12T07:53:43.216Z,5.66
2023-02-12T07:56:12.311Z,5.69
2023-02-12T07:58:40.432Z,5.74
2023-02-12T08:01:15.825Z,5.71
2023-02-12T08:03:43.284Z,5.78
2023-02-12T08:06:16.751Z,5.84
2023-02-12T08:11:15.939Z,5.81
2023-02-12T08:13:43.201Z,5.85
2023-02-12T08:16:13.531Z,5.97
2023-02-12T08:18:40.916Z,5.91
2023-02-12T08:21:21.462Z,5.99
2023-02-12T08:26:42.949Z,5.97
2023-02-12T08:29:13.260Z,5.91
2023-02-12T08:31:46.183Z,5.91
2023-02-12T08:34:20.235Z,5.99
2023-02-12T08:36:48.493Z,6.12
2023-02-12T08:39:15.404Z,6.01
2023-02-12T08:41:45.159Z,6.08
2023-02-12T08:44:13.331Z,6.03
2023-02-12T08:49:20.930Z,6.25
2023-02-12T08:51:50.053Z,6.25
2023-02-12T08:54:20.712Z,6.78
2023-02-12T08:56:47.451Z,7.80
2023-02-12T08:59:16.166Z,7.39
2023-02-12T09:01:44.191Z,7.24
2023-02-12T09:04:21.608Z,7.02
2023-02-12T09:06:49.831Z,7.01
2023-02-12T09:09:16.836Z,7.03
2023-02-12T09:11:44.879Z,7.00
2023-02-12T09:14:16.794Z,7.19
2023-02-12T09:16:44.146Z,7.02
2023-02-12T09:19:13.596Z,7.07
2023-02-12T09:21:40.335Z,7.10
2023-02-12T09:24:07.176Z,7.15
2023-02-12T09:26:33.852Z,7.23
2023-02-12T09:29:02.552Z,7.28
2023-02-12T09:31:31.313Z,7.25
2023-02-12T09:34:01.170Z,7.40
2023-02-12T09:36:28.581Z,8.32
2023-02-12T09:41:46.731Z,8.39
2023-02-12T09:44:45.408Z,8.16
2023-02-12T09:47:40.143Z,8.06
2023-02-12T09:50:30.600Z,7.95
2023-02-12T09:52:59.343Z,7.88
2023-02-12T09:55:30.342Z,7.95
2023-02-12T09:57:57.154Z,8.01
2023-02-12T10:00:31.229Z,8.00
2023-02-12T10:03:05.003Z,8.15
2023-02-12T10:05:35.723Z,8.18
2023-02-12T10:08:52.793Z,8.25
2023-02-12T10:11:35.294Z,8.34
2023-02-12T10:14:21.844Z,8.38
2023-02-12T10:17:00.463Z,8.32
2023-02-12T10:19:45.479Z,8.32
2023-02-12T10:22:28.445Z,8.34
2023-02-12T10:25:18.541Z,8.38
2023-02-12T10:27:50.506Z,8.37
2023-02-12T10:30:22.135Z,8.38
2023-02-12T10:32:53.003Z,8.33
2023-02-12T10:35:21.947Z,8.40
2023-02-12T10:37:54.248Z,8.43
2023-02-12T10:40:27.747Z,8.36
2023-02-12T10:42:54.689Z,8.32
2023-02-12T10:45:29.328Z,8.48
2023-02-12T10:48:06.015Z,8.56
2023-02-12T10:50:51.288Z,8.56
2023-02-12T10:53:24.216Z,8.39
2023-02-12T10:56:10.742Z,8.43
2023-02-12T10:58:40.052Z,8.40
2023-02-12T11:01:17.922Z,8.40
2023-02-12T11:03:44.485Z,8.45
2023-02-12T11:06:20.126Z,8.59
2023-02-12T11:08:46.902Z,8.60
2023-02-12T11:11:20.912Z,8.51
2023-02-12T11:13:56.532Z,8.58
2023-02-12T11:16:40.592Z,8.57
2023-02-12T11:19:18.284Z,8.61
2023-02-12T11:21:44.990Z,8.66
2023-02-12T11:24:26.701Z,8.60
2023-02-12T11:27:19.615Z,8.46
2023-02-12T11:29:49.767Z,8.53
2023-02-12T11:32:18.672Z,8.59
2023-02-12T11:35:08.812Z,8.69
2023-02-12T11:37:41.414Z,8.81
2023-02-12T11:40:16.764Z,8.94
2023-02-12T11:42:49.472Z,9.03
2023-02-12T11:45:19.961Z,9.04
2023-02-12T11:47:47.864Z,9.06
2023-02-12T11:50:24.688Z,9.31
2023-02-12T11:52:53.970Z,9.40
2023-02-12T11:55:34.999Z,9.37
2023-02-12T11:58:13.576Z,9.41
2023-02-12T12:00:49.161Z,9.59
2023-02-12T12:03:23.095Z,9.64
2023-02-12T12:05:52.752Z,9.61
2023-02-12T12:08:29.676Z,9.53
2023-02-12T12:11:19.363Z,9.65
2023-02-12T12:14:04.194Z,9.72
2023-02-12T12:17:15.742Z,10.16
2023-02-12T12:23:03.513Z,11.06
2023-02-12T12:25:52.648Z,11.07
2023-02-12T12:28:39.538Z,11.18
2023-02-12T12:31:21.232Z,11.07
2023-02-12T12:34:11.766Z,11.15
2023-02-12T12:39:18.811Z,10.35
2023-02-12T12:41:52.317Z,10.11
2023-02-12T12:44:38.480Z,10.08
2023-02-12T12:47:27.845Z,10.00
2023-02-12T12:50:33.377Z,9.89
2023-02-12T12:53:19.073Z,9.67
2023-02-12T12:56:08.237Z,9.64
2023-02-12T13:01:58.360Z,10.68
2023-02-12T13:04:32.848Z,11.05
2023-02-12T13:07:02.127Z,11.20
2023-02-12T13:09:57.328Z,11.42
2023-02-12T13:12:36.167Z,11.48
2023-02-12T13:15:37.665Z,11.62
2023-02-12T13:18:09.968Z,12.04
2023-02-12T13:20:48.940Z,12.16
2023-02-12T13:23:24.472Z,12.34
2023-02-12T13:26:04.224Z,12.24
2023-02-12T13:28:52.865Z,12.23
2023-02-12T13:31:34.561Z,12.35
2023-02-12T13:34:07.178Z,12.23
2023-02-12T13:36:36.776Z,11.70
2023-02-12T13:39:32.241Z,11.63
2023-02-12T13:42:08.820Z,11.71
2023-02-12T13:45:01.948Z,11.67
2023-02-12T13:47:45.542Z,11.26
2023-02-12T13:50:30.779Z,11.08
2023-02-12T13:53:07.823Z,10.84
2023-02-12T13:55:46.731Z,10.89
2023-02-12T13:58:32.057Z,10.73
2023-02-12T14:01:03.987Z,10.80
2023-02-12T14:03:31.930Z,10.70
2023-02-12T14:06:18.636Z,10.77
2023-02-12T14:08:51.023Z,10.89
2023-02-12T14:11:24.660Z,10.77
2023-02-12T14:13:55.472Z,10.80
2023-02-12T14:16:31.035Z,10.74
2023-02-12T14:19:35.297Z,10.59
2023-02-12T14:22:09.845Z,10.71
2023-02-12T14:24:36.362Z,10.87
2023-02-12T14:27:17.618Z,10.87
2023-02-12T14:30:07.929Z,10.91
2023-02-12T14:32:57.905Z,10.71
2023-02-12T14:35:30.070Z,10.54
2023-02-12T14:38:16.591Z,10.71
2023-02-12T14:40:45.522Z,10.73
2023-02-12T14:43:32.074Z,10.76
2023-02-12T14:46:23.511Z,10.75
2023-02-12T14:49:06.026Z,10.63
2023-02-12T14:51:45.006Z,10.53
2023-02-12T14:54:42.452Z,10.55
2023-02-12T14:57:20.162Z,10.58
2023-02-12T14:59:49.222Z,10.52
2023-02-12T15:02:25.968Z,10.56
2023-02-12T15:04:55.266Z,10.38
2023-02-12T15:07:43.603Z,10.61
2023-02-12T15:10:17.612Z,10.51
2023-02-12T15:13:10.508Z,10.37
2023-02-12T15:15:49.403Z,10.54
2023-02-12T15:18:24.602Z,10.61
2023-02-12T15:20:59.720Z,10.65
2023-02-12T15:23:39.581Z,10.64
2023-02-12T15:26:12.377Z,10.45
2023-02-12T15:28:40.136Z,10.47
2023-02-12T15:31:11.508Z,10.47
2023-02-12T15:33:45.764Z,10.46
2023-02-12T15:36:18.307Z,10.39
2023-02-12T15:38:49.610Z,10.34
2023-02-12T15:41:34.178Z,10.36
2023-02-12T15:44:04.152Z,10.38
2023-02-12T15:51:49.787Z,10.12
2023-02-12T15:54:20.277Z,10.14
2023-02-12T15:56:47.194Z,10.22
2023-02-12T15:59:25.172Z,10.15
2023-02-12T16:02:02.405Z,10.09
2023-02-12T16:04:34.311Z,10.01
2023-02-12T16:07:01.904Z,9.92
2023-02-12T16:09:34.054Z,9.83
2023-02-12T16:12:03.732Z,9.73
2023-02-12T16:14:44.899Z,9.68
2023-02-12T16:17:29.432Z,9.59
2023-02-12T16:20:06.756Z,9.47
2023-02-12T16:22:41.160Z,9.43
2023-02-12T16:25:33.231Z,9.35
2023-02-12T16:28:18.964Z,9.36
2023-02-12T16:30:48.545Z,9.31
2023-02-12T16:36:30.596Z,9.16
2023-02-12T16:39:05.306Z,9.22
2023-02-12T16:41:34.154Z,8.94
2023-02-12T16:44:00.746Z,8.99
2023-02-12T16:46:33.287Z,8.93
2023-02-12T16:49:01.448Z,8.91
2023-02-12T16:51:28.195Z,8.87
2023-02-12T16:53:57.847Z,8.78
2023-02-12T16:56:29.952Z,8.78
2023-02-12T16:58:58.957Z,8.81
2023-02-12T17:01:34.200Z,8.77
2023-02-12T17:04:04.494Z,8.68
2023-02-12T17:06:32.235Z,8.63
2023-02-12T17:08:59.766Z,8.64
2023-02-12T17:11:28.162Z,8.55
2023-02-12T17:13:55.765Z,8.54
2023-02-12T17:16:31.882Z,8.43
2023-02-12T17:19:00.186Z,8.30
2023-02-12T17:24:21.168Z,8.06
2023-02-12T17:26:50.549Z,7.96
2023-02-12T17:29:18.255Z,7.92
2023-02-12T17:31:45.470Z,7.92
2023-02-12T17:34:12.204Z,7.79
2023-02-12T17:36:38.830Z,7.75
2023-02-12T17:39:07.219Z,7.69
2023-02-12T17:41:34.173Z,7.75
2023-02-12T17:44:01.120Z,7.78
2023-02-12T17:49:06.633Z,7.72
2023-02-12T17:51:33.242Z,7.57
2023-02-12T17:53:59.837Z,7.32
2023-02-12T17:56:26.385Z,7.12
2023-02-12T17:58:53.138Z,6.97
2023-02-12T18:01:22.615Z,6.75
2023-02-12T18:03:52.341Z,6.63
2023-02-12T18:06:28.417Z,6.44
2023-02-12T18:08:57.096Z,6.32
2023-02-12T18:11:24.227Z,6.15
2023-02-12T18:13:58.683Z,6.02
2023-02-12T18:16:27.668Z,5.92
2023-02-12T18:18:54.901Z,5.87
2023-02-12T18:21:21.720Z,5.83
2023-02-12T18:23:48.402Z,5.78
2023-02-12T18:26:17.352Z,5.70
2023-02-12T18:28:44.538Z,5.69
2023-02-12T18:31:12.226Z,5.64
2023-02-12T18:33:39.215Z,5.56
2023-02-12T18:36:09.641Z,5.45
2023-02-12T18:38:38.392Z,5.39
2023-02-12T18:41:23.805Z,5.36
2023-02-12T18:43:50.518Z,5.43
2023-02-12T18:46:24.520Z,5.42
2023-02-12T18:48:52.020Z,5.36
2023-02-12T18:51:22.683Z,5.36
2023-02-12T18:53:57.221Z,5.28
2023-02-12T18:56:23.960Z,5.20
2023-02-12T18:58:55.246Z,5.16
2023-02-12T19:04:02.525Z,5.09
2023-02-12T19:06:30.808Z,4.99
2023-02-12T19:08:59.635Z,4.93
2023-02-12T19:11:27.926Z,5.39
2023-02-12T19:13:55.165Z,5.06
2023-02-12T19:16:23.885Z,5.03
2023-02-12T19:18:52.015Z,4.93
2023-02-12T19:21:19.055Z,5.00
2023-02-12T19:23:45.748Z,4.96
2023-02-12T19:26:15.611Z,4.76
2023-02-12T19:28:43.294Z,4.79
2023-02-12T19:31:37.728Z,4.70
2023-02-12T19:34:07.218Z,4.69
2023-02-12T19:36:36.044Z,4.56
2023-02-12T19:39:04.811Z,4.55
2023-02-12T19:41:33.056Z,4.48
2023-02-12T19:44:01.515Z,4.30
2023-02-12T19:49:02.842Z,4.12
2023-02-12T19:51:30.609Z,4.13
2023-02-12T19:54:02.394Z,4.15
2023-02-12T19:56:29.439Z,4.09
2023-02-12T19:58:57.512Z,3.98
2023-02-12T20:03:58.955Z,3.92
2023-02-12T20:06:29.848Z,3.82
2023-02-12T20:08:56.978Z,3.75
2023-02-12T20:11:25.813Z,3.95
2023-02-12T20:13:52.937Z,3.91
2023-02-12T20:16:22.575Z,4.21
2023-02-12T20:18:51.377Z,4.05
2023-02-12T20:21:20.930Z,3.94
2023-02-12T20:23:47.628Z,3.90
2023-02-12T20:26:14.971Z,3.83
2023-02-12T20:33:57.036Z,4.01
2023-02-12T20:36:24.402Z,4.07
2023-02-12T20:38:58.447Z,4.02
2023-02-12T20:41:26.959Z,3.86
2023-02-12T20:43:53.902Z,3.79
2023-02-12T20:46:23.362Z,3.69
2023-02-12T20:48:50.130Z,3.66
2023-02-12T20:51:19.529Z,3.64
2023-02-12T20:53:46.886Z,3.55
2023-02-12T20:56:25.284Z,3.69
2023-02-12T20:58:52.619Z,3.82
2023-02-12T21:01:25.693Z,3.81
2023-02-12T21:03:55.165Z,3.56
2023-02-12T21:06:23.561Z,3.46
2023-02-12T21:08:51.460Z,3.46
2023-02-12T21:11:22.005Z,3.37
2023-02-12T21:13:58.891Z,3.25
2023-02-12T21:16:33.470Z,3.22
2023-02-12T21:19:00.462Z,3.16
2023-02-12T21:21:29.623Z,3.05
2023-02-12T21:23:58.337Z,3.07
2023-02-12T21:26:27.239Z,3.00
2023-02-12T21:28:56.114Z,3.16
2023-02-12T21:31:29.163Z,3.19
2023-02-12T21:33:57.704Z,3.18
2023-02-12T21:36:26.689Z,3.08
2023-02-12T21:38:53.345Z,2.91
2023-02-12T21:41:23.559Z,3.03
2023-02-12T21:43:52.657Z,3.05
2023-02-12T21:46:21.753Z,3.10
2023-02-12T21:51:27.169Z,3.78
2023-02-12T21:54:06.211Z,3.95
2023-02-12T21:56:32.937Z,3.93
2023-02-12T21:58:59.717Z,4.12
2023-02-12T22:01:33.206Z,3.86
2023-02-12T22:04:01.497Z,3.78
2023-02-12T22:06:28.090Z,3.85
2023-02-12T22:08:56.790Z,3.82
2023-02-12T22:11:23.501Z,3.69
2023-02-12T22:13:50.117Z,3.53
2023-02-12T22:16:18.153Z,3.60
2023-02-12T22:18:46.259Z,3.18
2023-02-12T22:21:15.306Z,3.06
2023-02-12T22:23:43.274Z,3.01
2023-02-12T22:26:14.212Z,3.14
2023-02-12T22:28:43.282Z,2.96
2023-02-12T22:31:12.381Z,2.80
2023-02-12T22:33:39.167Z,2.69
2023-02-12T22:36:08.260Z,2.63
2023-02-12T22:38:36.181Z,2.73
2023-02-12T22:41:03.292Z,2.56
2023-02-12T22:46:02.210Z,2.42
2023-02-12T22:48:29.682Z,2.55
2023-02-12T22:50:57.651Z,2.78
2023-02-12T22:53:25.336Z,2.57
2023-02-12T22:58:29.982Z,2.48
2023-02-12T23:00:56.989Z,2.50
2023-02-12T23:03:23.810Z,2.37
2023-02-12T23:05:50.348Z,2.37
2023-02-12T23:08:16.913Z,2.40
2023-02-12T23:10:43.951Z,2.38
2023-02-12T23:13:13.543Z,2.34
2023-02-12T23:15:45.111Z,2.66
2023-02-12T23:18:11.651Z,2.90
2023-02-12T23:20:39.909Z,2.86
2023-02-12T23:23:06.478Z,2.84
2023-02-12T23:25:33.003Z,3.15
2023-02-12T23:27:59.696Z,3.29
2023-02-12T23:30:26.444Z,3.42
2023-02-12T23:32:53.079Z,3.21
2023-02-12T23:35:19.727Z,2.95
2023-02-12T23:37:46.271Z,2.62
2023-02-12T23:40:13.555Z,2.37
2023-02-12T23:42:40.971Z,2.34
2023-02-12T23:45:09.176Z,2.22
2023-02-12T23:47:35.845Z,2.11
2023-02-12T23:50:02.368Z,2.17
2023-02-12T23:52:28.900Z,2.11
2023-02-12T23:54:56.868Z,2.17
2023-02-12T23:57:23.482Z,2.12
2023-02-12T23:59:50.165Z,2.03
